Time;durP1;ratioP1;P1;durP2;ratioP2;P2;SDS_P1;SDS_P2;PMS_P1;PMS_P2;Temp;Humidity;BMP_temperature;BMP_pressure;BME280_temperature;BME280_humidity;BME280_pressure;Samples;Min_cycle;Max_cycle;Signal;HPM_P1;HPM_P2
2022/03/01 00:00:02;;;;;;;32.80;20.90;;;;;;;3.42;100.00;102196.19;4939799;29;20082;-71
2022/03/01 00:02:48;;;;;;;33.47;21.50;;;;;;;3.45;100.00;102210.94;4938920;29;20028;-73
2022/03/01 00:05:34;;;;;;;34.97;22.02;;;;;;;3.62;100.00;102200.34;4939749;29;20040;-73
2022/03/01 00:08:20;;;;;;;34.72;23.17;;;;;;;3.85;100.00;102209.78;4925179;29;20039;-72
2022/03/01 00:11:05;;;;;;;37.40;22.50;;;;;;;3.61;100.00;102202.88;4925550;29;20031;-72
2022/03/01 00:13:51;;;;;;;34.67;22.35;;;;;;;3.94;100.00;102202.28;4939205;29;20103;-71
2022/03/01 00:16:37;;;;;;;34.05;22.70;;;;;;;4.17;100.00;102200.44;4938570;29;20035;-72
2022/03/01 00:19:23;;;;;;;37.13;23.85;;;;;;;3.81;100.00;102191.47;4920482;29;20368;-72
2022/03/01 00:22:09;;;;;;;37.55;24.02;;;;;;;4.12;100.00;102202.91;4907509;29;20062;-72
2022/03/01 00:24:55;;;;;;;36.90;23.70;;;;;;;4.09;100.00;102191.53;4919718;29;20421;-72
2022/03/01 00:27:41;;;;;;;38.92;25.27;;;;;;;3.86;100.00;102206.34;4919957;29;20024;-72
2022/03/01 00:30:27;;;;;;;39.53;24.63;;;;;;;4.06;100.00;102197.50;4905622;29;20450;-72
2022/03/01 00:33:12;;;;;;;36.60;23.25;;;;;;;4.06;100.00;102197.50;4906875;29;20073;-72
2022/03/01 00:35:59;;;;;;;39.55;24.38;;;;;;;3.93;100.00;102202.25;4919582;29;20472;-71
2022/03/01 00:38:44;;;;;;;36.42;22.95;;;;;;;3.89;100.00;102197.78;4905986;29;20095;-72
2022/03/01 00:41:31;;;;;;;39.67;24.75;;;;;;;4.03;100.00;102204.31;4907244;29;20100;-72
2022/03/01 00:44:16;;;;;;;43.15;26.00;;;;;;;3.65;100.00;102202.16;4918766;29;20036;-72
2022/03/01 00:47:02;;;;;;;45.10;26.27;;;;;;;3.57;100.00;102206.19;4919670;29;20032;-72
2022/03/01 00:49:48;;;;;;;41.72;25.63;;;;;;;3.53;100.00;102199.13;4920077;29;20032;-71
2022/03/01 00:52:34;;;;;;;41.63;25.25;;;;;;;3.80;100.00;102202.66;4919114;29;20107;-72
2022/03/01 00:55:20;;;;;;;51.35;27.33;;;;;;;4.23;100.00;102198.91;4919354;29;20035;-72
2022/03/01 00:58:06;;;;;;;48.40;27.83;;;;;;;3.98;100.00;102198.09;4919918;29;20344;-73
2022/03/01 01:00:52;;;;;;;44.35;27.48;;;;;;;4.02;100.00;102206.03;4905458;29;20032;-71
2022/03/01 01:03:38;;;;;;;45.78;26.48;;;;;;;3.66;100.00;102207.38;4904619;29;20497;-72
2022/03/01 01:06:24;;;;;;;43.95;27.08;;;;;;;3.62;100.00;102199.47;4918575;29;20183;-73
2022/03/01 01:09:13;;;;;;;49.63;29.55;;;;;;;3.65;100.00;102203.03;4918966;29;20028;-71
2022/03/01 01:11:59;;;;;;;48.42;27.80;;;;;;;3.51;100.00;102212.06;4918870;29;20060;-71
2022/03/01 01:14:44;;;;;;;48.58;27.67;;;;;;;3.45;100.00;102213.53;4918447;29;20035;-72
2022/03/01 01:17:30;;;;;;;49.80;28.27;;;;;;;3.76;100.00;102214.66;4923547;29;20130;-73
2022/03/01 01:20:17;;;;;;;45.78;27.50;;;;;;;3.72;100.00;102212.78;4923274;29;20028;-72
2022/03/01 01:23:03;;;;;;;47.65;28.77;;;;;;;3.56;100.00;102210.50;4937311;29;20437;-73
2022/03/01 01:25:49;;;;;;;47.42;28.67;;;;;;;3.62;100.00;102212.44;4925031;28;20042;-71
2022/03/01 01:28:35;;;;;;;41.88;26.70;;;;;;;4.05;100.00;102213.91;4938532;29;20047;-72
2022/03/01 01:31:20;;;;;;;42.10;26.55;;;;;;;3.79;100.00;102209.59;4923841;29;20368;-72
2022/03/01 01:34:06;;;;;;;45.95;27.05;;;;;;;3.73;100.00;102211.97;4937894;29;20035;-73
2022/03/01 01:36:52;;;;;;;44.22;26.55;;;;;;;3.64;100.00;102211.66;4938113;29;20027;-72
2022/03/01 01:39:38;;;;;;;44.97;27.55;;;;;;;3.79;100.00;102214.78;4937767;29;20034;-72
2022/03/01 01:42:23;;;;;;;43.00;25.25;;;;;;;3.80;100.00;102210.44;4938216;29;20028;-71
2022/03/01 01:49:20;;;;;;;40.38;23.88;;;;;;;3.48;100.00;102221.44;4938709;29;20028;-72
2022/03/01 01:52:07;;;;;;;37.83;23.55;;;;;;;3.51;100.00;102212.06;4937553;29;20400;-73
2022/03/01 01:54:54;;;;;;;38.22;24.33;;;;;;;3.64;100.00;102213.34;4937441;29;20024;-71
2022/03/01 01:57:39;;;;;;;40.17;23.50;;;;;;;3.93;100.00;102215.19;4937425;29;20102;-73
2022/03/01 02:00:26;;;;;;;37.75;23.98;;;;;;;3.64;100.00;102214.25;4937690;29;20465;-71
2022/03/01 02:03:12;;;;;;;35.58;22.88;;;;;;;3.91;100.00;102212.56;4922652;29;20373;-71
2022/03/01 02:05:58;;;;;;;36.55;23.58;;;;;;;3.65;100.00;102209.94;4937321;29;20027;-72
2022/03/01 02:08:44;;;;;;;33.78;21.70;;;;;;;3.59;100.00;102223.59;4937442;29;20425;-71
2022/03/01 02:11:29;;;;;;;30.67;20.83;;;;;;;3.42;100.00;102214.31;4937903;29;20024;-72
2022/03/01 02:14:15;;;;;;;34.75;21.50;;;;;;;3.76;100.00;102206.00;4937210;29;20086;-72
2022/03/01 02:17:05;;;;;;;32.08;20.83;;;;;;;3.65;100.00;102204.75;4937554;29;20361;-71
2022/03/01 02:19:51;;;;;;;31.50;20.80;;;;;;;3.66;100.00;102211.72;4937468;29;20050;-71
2022/03/01 02:22:37;;;;;;;29.63;19.75;;;;;;;3.89;100.00;102211.63;4937562;29;20111;-72
2022/03/01 02:25:23;;;;;;;30.95;19.95;;;;;;;3.74;100.00;102211.13;4937302;29;20051;-74
2022/03/01 02:28:09;;;;;;;29.92;19.40;;;;;;;3.82;100.00;102209.66;4937531;29;20107;-72
2022/03/01 02:57:47;;;;;;;25.17;16.73;;;;;;;3.81;100.00;102186.28;5350308;23;19922;-72
2022/03/01 03:00:33;;;;;;;25.08;16.00;;;;;;;3.74;100.00;102192.13;4960527;28;20023;-72
2022/03/01 03:03:19;;;;;;;24.02;15.60;;;;;;;3.40;100.00;102184.00;4950005;28;20132;-71
2022/03/01 03:06:05;;;;;;;24.33;16.38;;;;;;;3.80;100.00;102185.41;4941170;28;20024;-72
2022/03/01 03:08:51;;;;;;;23.50;16.45;;;;;;;3.81;100.00;102186.28;4941054;29;20031;-72
2022/03/01 03:11:37;;;;;;;25.88;17.70;;;;;;;3.93;100.00;102182.38;4928246;28;20039;-71
2022/03/01 03:14:22;;;;;;;23.05;16.17;;;;;;;3.96;100.00;102177.31;4941108;28;20122;-71
2022/03/01 03:17:08;;;;;;;26.58;17.63;;;;;;;3.68;100.00;102177.25;4941364;29;20039;-72
2022/03/01 05:37:04;;;;;;;53.70;32.25;;;;;;;2.66;100.00;102164.91;5515982;23;20076;-72
2022/03/01 05:39:49;;;;;;;49.03;29.23;;;;;;;2.95;100.00;102172.03;4944199;28;20034;-71
2022/03/01 05:42:35;;;;;;;43.58;24.92;;;;;;;2.73;100.00;102170.34;4939098;29;20036;-72
2022/03/01 05:45:21;;;;;;;44.35;27.05;;;;;;;2.57;100.00;102177.50;4938376;28;20350;-72
2022/03/01 05:48:07;;;;;;;40.28;24.88;;;;;;;2.42;100.00;102175.22;4938819;28;20038;-72
2022/03/01 05:50:54;;;;;;;49.08;29.48;;;;;;;2.77;100.00;102174.81;4938035;29;20031;-72
2022/03/01 05:53:41;;;;;;;66.53;31.02;;;;;;;2.89;100.00;102177.88;4938426;29;20023;-73
2022/03/01 05:56:26;;;;;;;65.10;38.58;;;;;;;2.92;100.00;102180.56;4924928;28;20024;-72
2022/03/01 05:59:12;;;;;;;36.28;20.83;;;;;;;2.83;100.00;102185.41;4939028;28;20031;-71
2022/03/01 06:01:58;;;;;;;30.52;19.80;;;;;;;2.68;100.00;102179.66;4936627;29;20047;-71
2022/03/01 06:04:44;;;;;;;27.80;17.83;;;;;;;2.67;100.00;102183.09;4937814;28;20031;-72
2022/03/01 06:07:30;;;;;;;30.65;17.65;;;;;;;2.76;100.00;102185.13;4938601;28;20034;-72
2022/03/01 06:10:16;;;;;;;28.17;16.02;;;;;;;2.71;100.00;102179.78;4925411;28;20038;-69
2022/03/01 06:13:01;;;;;;;27.05;16.38;;;;;;;2.59;100.00;102188.78;4937876;28;20032;-71
2022/03/01 06:15:48;;;;;;;26.92;16.55;;;;;;;2.71;100.00;102190.16;4937726;29;20102;-72
2022/03/01 06:18:34;;;;;;;22.20;15.35;;;;;;;2.65;100.00;102187.31;4937981;29;20194;-72
2022/03/01 06:21:20;;;;;;;26.17;16.15;;;;;;;2.65;100.00;102183.84;4937582;28;20023;-71
2022/03/01 06:24:06;;;;;;;25.20;16.35;;;;;;;2.47;100.00;102184.03;4937795;29;20471;-70
2022/03/01 06:26:52;;;;;;;28.27;17.15;;;;;;;2.54;100.00;102188.63;4937570;29;20020;-72
2022/03/01 06:29:38;;;;;;;29.38;17.23;;;;;;;2.66;100.00;102177.84;4937835;29;20131;-70
2022/03/01 06:32:24;;;;;;;40.47;22.48;;;;;;;3.05;100.00;102184.50;4937923;29;20031;-70
2022/03/01 06:35:10;;;;;;;32.53;21.40;;;;;;;2.91;100.00;102184.00;4928835;28;20028;-72
2022/03/01 06:37:55;;;;;;;32.58;20.15;;;;;;;2.83;100.00;102185.41;4927176;29;20052;-73
2022/03/01 06:40:41;;;;;;;31.20;19.10;;;;;;;2.86;100.00;102189.81;4928938;28;20442;-72
2022/03/01 06:43:27;;;;;;;30.50;18.23;;;;;;;2.82;100.00;102188.81;4928764;28;20051;-71
2022/03/01 06:46:13;;;;;;;28.05;18.38;;;;;;;3.02;100.00;102180.06;4927192;29;20051;-71
2022/03/01 06:48:59;;;;;;;26.13;15.07;;;;;;;2.98;100.00;102180.78;4928374;28;20035;-72
2022/03/01 06:51:44;;;;;;;25.73;14.63;;;;;;;3.03;100.00;102180.97;4940997;29;20031;-72
2022/03/01 06:54:31;;;;;;;23.50;13.90;;;;;;;2.99;100.00;102184.25;4941489;29;20036;-71
2022/03/01 06:57:23;;;;;;;22.83;14.68;;;;;;;3.21;100.00;102172.13;4928099;28;20027;-72
2022/03/01 07:00:10;;;;;;;21.73;14.45;;;;;;;3.25;100.00;102176.59;4928314;28;20039;-72
2022/03/01 07:02:56;;;;;;;23.33;15.00;;;;;;;3.47;100.00;102180.81;4940611;29;20036;-72
2022/03/01 07:05:42;;;;;;;23.35;13.68;;;;;;;3.76;100.00;102180.06;4914044;29;20407;-73
2022/03/01 07:08:28;;;;;;;19.90;12.82;;;;;;;3.49;100.00;102182.63;4927979;28;20024;-72
2022/03/01 07:11:23;;;;;;;17.02;10.77;;;;;;;3.30;100.00;102176.75;4941007;29;20043;-73
2022/03/01 07:14:09;;;;;;;17.98;11.05;;;;;;;3.14;100.00;102183.09;4927930;28;20035;-71
2022/03/01 07:16:54;;;;;;;19.92;11.25;;;;;;;3.18;100.00;102179.78;4941601;28;20016;-72
2022/03/01 07:19:40;;;;;;;16.73;9.80;;;;;;;3.21;100.00;102182.50;4925955;29;20111;-70
2022/03/01 07:22:29;;;;;;;14.68;9.23;;;;;;;2.85;100.00;102182.91;4940186;29;20063;-73
2022/03/01 07:25:14;;;;;;;14.75;8.68;;;;;;;3.18;100.00;102182.38;4940837;29;20110;-72
2022/03/01 07:28:00;;;;;;;14.38;9.05;;;;;;;3.15;100.00;102189.16;4939916;29;20062;-72
2022/03/01 07:30:46;;;;;;;13.80;9.25;;;;;;;3.55;100.00;102190.63;4940611;29;20459;-73
2022/03/01 07:33:32;;;;;;;13.82;8.80;;;;;;;3.80;100.00;102194.91;4927311;28;20053;-71
2022/03/01 07:36:18;;;;;;;15.57;10.07;;;;;;;3.76;100.00;102199.09;4939791;29;20059;-72
2022/03/01 07:39:04;;;;;;;18.05;9.82;;;;;;;4.05;100.00;102198.34;4940710;28;20034;-71
2022/03/01 07:41:50;;;;;;;15.40;9.15;;;;;;;4.11;100.00;102205.44;4939952;29;20036;-72
2022/03/01 07:44:38;;;;;;;15.27;9.20;;;;;;;3.89;100.00;102206.47;4939443;29;20479;-71
2022/03/01 07:47:24;;;;;;;14.98;8.32;;;;;;;3.39;100.00;102202.97;4940327;29;20119;-72
2022/03/01 07:50:10;;;;;;;15.95;9.73;;;;;;;3.21;100.00;102204.91;4939235;29;20054;-71
2022/03/01 07:52:56;;;;;;;18.05;9.85;;;;;;;2.84;100.00;102210.47;4927164;28;20027;-71
2022/03/01 07:55:42;;;;;;;17.17;9.80;;;;;;;3.50;100.00;102207.69;4940200;28;20028;-72
2022/03/01 07:58:28;;;;;;;17.70;10.65;;;;;;;3.93;100.00;102208.31;4926975;28;20032;-71
2022/03/01 08:01:14;;;;;;;17.90;10.70;;;;;;;3.74;100.00;102205.94;4942788;28;20038;-71
2022/03/01 08:04:00;;;;;;;16.20;11.23;;;;;;;3.97;100.00;102215.38;4927938;29;20035;-72
2022/03/01 08:06:46;;;;;;;18.17;10.48;;;;;;;4.11;100.00;102219.28;4940581;29;20103;-72
2022/03/01 08:09:32;;;;;;;14.63;9.63;;;;;;;4.36;100.00;102231.31;4939565;29;20467;-73
2022/03/01 08:12:18;;;;;;;15.48;9.23;;;;;;;3.87;100.00;102228.84;4938664;29;20102;-71
2022/03/01 08:15:04;;;;;;;14.57;8.85;;;;;;;4.03;100.00;102231.09;4939583;29;20019;-72
2022/03/01 08:17:53;;;;;;;16.02;10.30;;;;;;;4.10;100.00;102227.88;4939883;29;20019;-72
2022/03/01 08:20:39;;;;;;;16.27;10.75;;;;;;;4.28;100.00;102235.38;4940110;28;20042;-72
2022/03/01 08:23:26;;;;;;;16.58;10.07;;;;;;;4.12;100.00;102235.72;4939912;29;20039;-71
2022/03/01 08:26:12;;;;;;;18.92;10.77;;;;;;;4.31;100.00;102235.50;4938176;29;20090;-72
2022/03/01 08:28:58;;;;;;;19.10;10.73;;;;;;;4.04;100.00;102239.78;4939790;29;20023;-72
2022/03/01 08:31:44;;;;;;;17.35;10.23;;;;;;;4.33;100.00;102237.31;4939939;28;20024;-71
2022/03/01 08:34:30;;;;;;;30.65;14.23;;;;;;;4.67;100.00;102232.31;4938472;29;20047;-72
2022/03/01 08:37:15;;;;;;;21.05;12.98;;;;;;;4.31;100.00;102233.75;4938899;29;20052;-73
2022/03/01 08:40:04;;;;;;;17.20;11.50;;;;;;;4.06;100.00;102235.53;4939902;28;20035;-71
2022/03/01 08:42:49;;;;;;;18.63;11.82;;;;;;;4.50;100.00;102233.50;4939289;29;20046;-71
2022/03/01 08:45:36;;;;;;;17.33;11.05;;;;;;;4.82;100.00;102240.56;4938765;29;20039;-70
2022/03/01 08:48:21;;;;;;;17.65;11.02;;;;;;;5.28;100.00;102230.66;4939545;28;20070;-71
2022/03/01 08:51:07;;;;;;;31.08;20.60;;;;;;;5.18;100.00;102228.66;4939294;28;20042;-72
2022/03/01 08:53:54;;;;;;;29.65;17.88;;;;;;;5.38;100.00;102233.53;4924826;29;20031;-71
2022/03/01 08:56:40;;;;;;;16.65;10.93;;;;;;;5.02;100.00;102231.66;4938589;28;20086;-71
2022/03/01 08:59:28;;;;;;;14.68;9.90;;;;;;;5.53;100.00;102233.91;4940032;28;20043;-71
2022/03/01 09:02:17;;;;;;;17.08;11.15;;;;;;;5.79;100.00;102231.16;4938134;29;20027;-71
2022/03/01 09:05:05;;;;;;;15.10;8.77;;;;;;;5.33;100.00;102221.28;4938809;29;20035;-71
2022/03/01 09:07:51;;;;;;;12.48;7.53;;;;;;;5.24;100.00;102226.22;4924666;29;20091;-71
2022/03/01 09:10:36;;;;;;;9.57;6.55;;;;;;;5.51;100.00;102217.41;4939194;29;20031;-71
2022/03/01 09:13:22;;;;;;;9.93;7.32;;;;;;;6.29;100.00;102211.63;4923934;29;20042;-71
2022/03/01 09:16:09;;;;;;;9.82;6.78;;;;;;;5.72;100.00;102212.78;4924618;29;20020;-72
2022/03/01 09:18:55;;;;;;;10.60;7.00;;;;;;;5.91;100.00;102202.91;4925750;28;20099;-72
2022/03/01 09:21:41;;;;;;;10.35;7.03;;;;;;;6.51;100.00;102201.75;4924165;29;20028;-71
2022/03/01 09:24:26;;;;;;;10.27;6.13;;;;;;;6.24;100.00;102200.25;4924421;29;20101;-72
2022/03/01 09:27:12;;;;;;;6.80;4.60;;;;;;;5.64;100.00;102202.19;4925387;28;20368;-71
2022/03/01 09:29:58;;;;;;;7.55;4.68;;;;;;;5.43;100.00;102211.13;4926046;28;20451;-71
2022/03/01 09:32:44;;;;;;;5.50;4.55;;;;;;;5.15;100.00;102202.56;4937481;29;20039;-71
2022/03/01 09:35:30;;;;;;;11.45;7.32;;;;;;;5.40;100.00;102196.34;4937724;29;20119;-72
2022/03/01 09:38:16;;;;;;;10.77;5.80;;;;;;;5.26;100.00;102192.47;4937961;29;20514;-71
2022/03/01 09:41:02;;;;;;;11.85;7.82;;;;;;;5.74;100.00;102196.38;4924346;29;20028;-73
2022/03/01 09:43:51;;;;;;;8.30;5.30;;;;;;;5.91;100.00;102189.91;4923381;29;20321;-72
2022/03/01 09:46:38;;;;;;;10.35;5.80;;;;;;;6.51;100.00;102190.47;4937604;29;20028;-72
2022/03/01 09:49:24;;;;;;;11.60;7.18;;;;;;;6.03;100.00;102195.41;4937561;29;20146;-72
2022/03/01 09:52:10;;;;;;;14.32;8.45;;;;;;;5.86;100.00;102190.66;4937599;29;20027;-72
2022/03/01 09:54:56;;;;;;;10.93;6.80;;;;;;;5.46;100.00;102185.25;4938517;28;20038;-71
2022/03/01 09:57:42;;;;;;;12.68;7.70;;;;;;;5.62;100.00;102183.06;4938416;29;20027;-71
2022/03/01 10:00:27;;;;;;;15.23;8.43;;;;;;;5.46;100.00;102185.25;4937760;29;20036;-71
2022/03/01 10:03:20;;;;;;;13.63;7.60;;;;;;;5.79;100.00;102180.91;4937639;29;20031;-73
2022/03/01 10:06:08;;;;;;;12.48;7.78;;;;;;;5.63;100.00;102178.75;4938806;29;20074;-71
2022/03/01 10:08:54;;;;;;;13.45;7.75;;;;;;;5.57;100.00;102181.16;4948301;29;20031;-72
2022/03/01 10:11:41;;;;;;;12.75;7.78;;;;;;;5.20;100.00;102177.59;4948188;29;20090;-71
2022/03/01 10:14:32;;;;;;;16.90;8.43;;;;;;;4.31;100.00;102170.63;4933976;28;20123;-70
2022/03/01 10:17:18;;;;;;;11.43;7.68;;;;;;;4.56;100.00;102175.72;4934986;29;20118;-71
2022/03/01 10:20:20;;;;;;;14.05;8.48;;;;;;;4.74;100.00;102181.44;4938745;28;20114;-72
2022/03/01 10:23:06;;;;;;;11.65;8.32;;;;;;;5.14;100.00;102168.75;4950627;29;20325;-73
2022/03/01 10:25:52;;;;;;;13.77;9.57;;;;;;;5.25;100.00;102175.13;4935753;28;20059;-71
2022/03/01 10:28:38;;;;;;;10.20;7.40;;;;;;;5.18;100.00;102171.50;4936173;29;20046;-71
2022/03/01 10:31:27;;;;;;;11.18;6.70;;;;;;;4.50;100.00;102160.84;4949138;29;20031;-71
2022/03/01 10:34:14;;;;;;;12.18;6.63;;;;;;;4.20;100.00;102167.72;4948827;28;20059;-71
2022/03/01 10:37:00;;;;;;;9.57;6.75;;;;;;;4.35;100.00;102162.97;4944164;29;20477;-73
2022/03/01 10:39:45;;;;;;;13.38;8.95;;;;;;;5.43;100.00;102155.72;4946824;29;20050;-72
2022/03/01 10:42:31;;;;;;;11.80;7.50;;;;;;;5.30;100.00;102153.63;4945316;28;20027;-73
2022/03/01 10:45:17;;;;;;;10.32;6.80;;;;;;;6.04;100.00;102152.97;4943779;29;20032;-73
2022/03/01 10:48:04;;;;;;;11.52;7.72;;;;;;;5.72;100.00;102153.88;4930592;29;20110;-72
2022/03/01 10:51:01;;;;;;;11.30;7.60;;;;;;;5.54;100.00;102152.53;4944340;29;20028;-73
2022/03/01 10:53:47;;;;;;;11.45;7.70;;;;;;;5.76;100.00;102149.59;4943844;29;20040;-73
2022/03/01 10:56:37;;;;;;;12.40;7.90;;;;;;;5.29;100.00;102146.69;4946016;29;20055;-72
2022/03/01 10:59:27;;;;;;;13.02;8.43;;;;;;;5.67;100.00;102144.19;4948580;29;20031;-72
2022/03/01 11:02:16;;;;;;;11.13;7.38;;;;;;;4.99;100.00;102144.97;4937266;28;20071;-72
2022/03/01 11:05:02;;;;;;;12.10;8.18;;;;;;;5.86;100.00;102138.63;4950953;29;20031;-73
2022/03/01 11:07:51;;;;;;;12.32;7.78;;;;;;;4.80;100.00;102138.41;4937017;29;20028;-71
2022/03/01 11:10:38;;;;;;;13.00;7.97;;;;;;;5.52;100.00;102136.00;4951994;29;20034;-72
2022/03/01 11:13:30;;;;;;;11.38;8.02;;;;;;;5.65;100.00;102135.44;4938200;28;20036;-73
2022/03/01 11:16:50;;;;;;;13.85;8.75;;;;;;;5.63;100.00;102137.16;4951481;29;20024;-72
2022/03/01 11:19:50;;;;;;;12.38;7.70;;;;;;;4.97;100.00;102136.25;4947799;28;20031;-71
2022/03/01 11:22:45;;;;;;;17.98;9.70;;;;;;;5.39;100.00;102140.00;4944225;28;20036;-72
2022/03/01 11:25:37;;;;;;;16.55;11.02;;;;;;;5.34;100.00;102134.69;4927935;29;20023;-73
2022/03/01 11:28:39;;;;;;;11.48;7.57;;;;;;;4.70;100.00;102131.16;4928514;28;20182;-73
2022/03/01 11:31:31;;;;;;;12.50;8.68;;;;;;;4.95;100.00;102131.00;4940393;29;20031;-72
2022/03/01 11:34:21;;;;;;;13.15;9.32;;;;;;;5.16;100.00;102133.31;4942525;29;20109;-74
2022/03/01 11:37:31;;;;;;;11.68;8.85;;;;;;;5.20;100.00;102138.63;4942998;29;20044;-74
2022/03/01 11:40:23;;;;;;;13.80;8.13;;;;;;;5.08;100.00;102132.25;4940455;29;20028;-72
2022/03/01 11:43:15;;;;;;;13.63;8.18;;;;;;;4.95;100.00;102131.00;4928193;28;20105;-73
2022/03/01 11:46:14;;;;;;;14.45;8.93;;;;;;;5.00;100.00;102131.16;4939745;29;20031;-72
2022/03/01 11:49:04;;;;;;;15.20;10.75;;;;;;;4.99;100.00;102132.84;4940434;29;20083;-72
2022/03/01 11:51:54;;;;;;;14.30;9.70;;;;;;;4.83;100.00;102135.88;4940075;29;20039;-72
2022/03/01 11:54:43;;;;;;;13.23;8.75;;;;;;;4.67;100.00;102125.88;4940615;28;20452;-72
2022/03/01 11:57:29;;;;;;;14.18;9.02;;;;;;;5.09;100.00;102127.09;4925929;29;20099;-72
2022/03/01 12:00:16;;;;;;;14.95;9.60;;;;;;;5.04;100.00;102127.81;4940624;28;20507;-72
2022/03/01 12:03:02;;;;;;;13.45;9.27;;;;;;;4.65;100.00;102118.88;4939140;29;20463;-72
2022/03/01 12:05:50;;;;;;;13.43;9.20;;;;;;;4.55;100.00;102107.34;4939495;29;20094;-72
2022/03/01 12:08:39;;;;;;;14.05;9.85;;;;;;;4.89;100.00;102117.88;4926033;29;20118;-73
2022/03/01 12:11:33;;;;;;;14.23;9.60;;;;;;;5.06;100.00;102115.72;4940109;29;20114;-73
2022/03/01 12:14:20;;;;;;;13.55;9.65;;;;;;;5.38;100.00;102113.97;4940579;29;20106;-73
2022/03/01 12:17:20;;;;;;;14.80;10.18;;;;;;;5.36;100.00;102109.59;4940305;29;20453;-73
2022/03/01 12:20:10;;;;;;;14.32;9.75;;;;;;;5.48;100.00;102107.31;4939692;29;20369;-74
2022/03/01 12:23:03;;;;;;;13.40;9.35;;;;;;;5.55;100.00;102102.28;4939683;29;20081;-72
2022/03/01 12:25:49;;;;;;;12.40;9.00;;;;;;;5.44;100.00;102107.22;4939394;29;20365;-73
2022/03/01 12:28:43;;;;;;;12.52;9.27;;;;;;;5.55;100.00;102099.69;4940346;28;20479;-72
2022/03/01 12:31:30;;;;;;;13.63;9.55;;;;;;;4.70;100.00;102100.00;4938490;29;20146;-73
2022/03/01 12:34:15;;;;;;;14.32;10.10;;;;;;;5.21;100.00;102101.44;4939768;29;20401;-75
2022/03/01 12:37:07;;;;;;;14.95;11.25;;;;;;;5.54;100.00;102098.78;4940000;28;20440;-75
2022/03/01 12:39:54;;;;;;;15.38;10.45;;;;;;;5.40;100.00;102093.25;4939844;28;20139;-73
2022/03/01 12:42:40;;;;;;;14.50;9.77;;;;;;;5.20;100.00;102094.47;4925560;29;20047;-73
2022/03/01 12:45:31;;;;;;;13.60;9.70;;;;;;;5.29;100.00;102097.31;4924433;29;20063;-73
2022/03/01 12:48:17;;;;;;;13.65;9.68;;;;;;;4.93;100.00;102096.34;4926982;28;20455;-74
2022/03/01 12:51:03;;;;;;;15.15;10.40;;;;;;;5.14;100.00;102096.91;4939721;28;20036;-74
2022/03/01 12:54:10;;;;;;;13.63;10.25;;;;;;;5.43;100.00;102096.78;4926376;28;20416;-74
2022/03/01 12:56:59;;;;;;;13.57;10.50;;;;;;;4.94;100.00;102098.09;4938910;29;20067;-74
2022/03/01 12:59:47;;;;;;;13.98;9.50;;;;;;;4.61;100.00;102088.50;4939573;29;20031;-73
2022/03/01 13:02:32;;;;;;;14.77;11.35;;;;;;;4.47;100.00;102085.50;4924336;29;20098;-75
2022/03/01 13:05:26;;;;;;;18.77;13.35;;;;;;;4.68;100.00;102098.22;4925517;29;20046;-74
2022/03/01 13:19:44;;;;;;;16.67;11.77;;;;;;;5.11;100.00;102081.25;5690338;23;20060;-72
2022/03/01 13:22:30;;;;;;;16.20;12.32;;;;;;;4.68;100.00;102080.94;4934494;29;20059;-72
2022/03/01 13:25:15;;;;;;;15.35;11.18;;;;;;;5.11;100.00;102076.03;4919484;29;20078;-73
2022/03/01 13:28:03;;;;;;;16.90;11.90;;;;;;;5.16;100.00;102076.19;4905913;29;20365;-73
2022/03/01 13:30:49;;;;;;;16.83;11.68;;;;;;;5.24;100.00;102066.84;4919332;29;20028;-73
2022/03/01 13:33:35;;;;;;;17.20;12.43;;;;;;;4.70;100.00;102071.47;4917873;29;20064;-73
2022/03/01 13:36:21;;;;;;;20.77;12.13;;;;;;;5.08;100.00;102067.31;4919942;29;20028;-73
2022/03/01 13:42:48;;;;;;;18.27;13.23;;;;;;;5.10;100.00;102053.50;4918940;29;20032;-73
2022/03/01 13:45:35;;;;;;;19.45;13.70;;;;;;;5.08;100.00;102057.81;4918365;29;20405;-74
2022/03/01 13:48:21;;;;;;;18.95;12.57;;;;;;;5.16;100.00;102052.78;4918930;29;20046;-72
2022/03/01 13:51:08;;;;;;;15.50;11.38;;;;;;;4.81;100.00;102046.69;4919791;29;20123;-73
2022/03/01 13:54:05;;;;;;;18.50;13.80;;;;;;;4.87;100.00;102052.03;4919146;29;20032;-72
2022/03/01 13:56:51;;;;;;;18.75;13.70;;;;;;;5.02;100.00;102042.03;4919539;29;20044;-73
2022/03/01 13:59:37;;;;;;;20.00;14.80;;;;;;;5.25;100.00;102045.22;4920263;29;20032;-73
2022/03/01 14:02:23;;;;;;;19.63;13.32;;;;;;;4.68;100.00;102048.91;4918271;29;20422;-73
2022/03/01 14:05:10;;;;;;;18.80;13.35;;;;;;;4.86;100.00;102045.06;4905774;29;20067;-72
2022/03/01 14:08:16;;;;;;;25.70;17.15;;;;;;;4.75;100.00;102045.63;4919103;29;20111;-72
2022/03/01 14:11:08;;;;;;;18.42;12.50;;;;;;;4.86;100.00;102041.59;4905679;29;20381;-73
2022/03/01 14:13:54;;;;;;;17.70;12.15;;;;;;;4.69;100.00;102042.88;4918803;29;20449;-72
2022/03/01 14:16:43;;;;;;;20.63;13.35;;;;;;;4.49;100.00;102042.31;4918784;29;20034;-72
2022/03/01 14:19:28;;;;;;;26.05;18.67;;;;;;;4.19;100.00;102040.56;4904388;29;20481;-73
2022/03/01 14:24:56;;;;;;;38.45;22.65;;;;;;;4.87;100.00;102033.84;5462923;23;20059;-72
2022/03/01 14:27:42;;;;;;;22.95;14.05;;;;;;;4.78;100.00;102040.50;4957634;28;20035;-73
2022/03/01 14:30:28;;;;;;;20.52;13.07;;;;;;;4.41;100.00;102029.97;4957073;28;20376;-73
2022/03/01 14:33:13;;;;;;;21.05;13.68;;;;;;;4.88;100.00;102038.22;4946365;29;20034;-72
2022/03/01 14:36:01;;;;;;;28.70;18.38;;;;;;;4.99;100.00;102034.16;4937846;29;20449;-72
2022/03/01 14:38:47;;;;;;;55.55;44.92;;;;;;;5.07;100.00;102032.66;4938087;28;20024;-72
2022/03/01 14:41:33;;;;;;;24.27;16.25;;;;;;;4.89;100.00;102032.19;4937805;29;20035;-72
2022/03/01 14:44:19;;;;;;;24.80;15.20;;;;;;;4.76;100.00;102029.22;4924784;28;20098;-72
2022/03/01 14:47:05;;;;;;;23.40;16.08;;;;;;;4.34;100.00;102035.84;4937901;29;20087;-72
2022/03/01 14:49:50;;;;;;;17.15;12.05;;;;;;;4.19;100.00;102028.47;4924641;28;20035;-72
2022/03/01 14:52:36;;;;;;;19.02;12.10;;;;;;;4.18;100.00;102033.63;4937658;28;20038;-73
2022/03/01 14:55:22;;;;;;;19.00;11.90;;;;;;;4.40;100.00;102031.69;4940354;29;20016;-72
2022/03/01 14:58:08;;;;;;;15.85;11.07;;;;;;;3.83;100.00;102034.28;4941210;29;20479;-73
2022/03/01 15:00:53;;;;;;;14.98;10.18;;;;;;;4.12;100.00;102028.25;4944312;28;20032;-73
2022/03/01 15:03:39;;;;;;;16.13;11.05;;;;;;;4.15;100.00;102029.22;4940864;29;20472;-73
2022/03/01 15:06:25;;;;;;;19.17;12.52;;;;;;;4.08;100.00;102021.22;4941369;28;20032;-72
2022/03/01 15:09:11;;;;;;;19.70;12.00;;;;;;;4.03;100.00;102018.47;4941427;28;20039;-72
2022/03/01 15:11:57;;;;;;;21.98;14.13;;;;;;;4.02;100.00;102021.91;4941480;28;20512;-73
2022/03/01 15:14:43;;;;;;;26.35;16.40;;;;;;;4.13;100.00;102028.31;4940554;28;20472;-72
2022/03/01 15:17:28;;;;;;;17.42;11.13;;;;;;;3.88;100.00;102023.22;4941252;29;20028;-74
2022/03/01 15:20:18;;;;;;;19.98;12.68;;;;;;;4.01;100.00;102019.28;4940925;28;20059;-72
2022/03/01 15:23:04;;;;;;;18.95;12.38;;;;;;;4.25;100.00;102025.16;4927372;29;20027;-74
2022/03/01 15:25:50;;;;;;;23.33;15.63;;;;;;;3.88;100.00;102022.34;4925587;29;20122;-74
2022/03/01 15:28:36;;;;;;;23.38;14.30;;;;;;;4.08;100.00;102022.09;4941587;28;20369;-73
2022/03/01 15:31:22;;;;;;;26.70;16.02;;;;;;;4.06;100.00;102021.16;4940501;29;20041;-72
2022/03/01 15:34:08;;;;;;;26.30;17.15;;;;;;;4.14;100.00;102027.47;4940911;28;20044;-72
2022/03/01 15:36:53;;;;;;;21.27;15.13;;;;;;;4.08;100.00;102022.09;4940224;29;20153;-74
2022/03/01 15:39:41;;;;;;;22.73;14.98;;;;;;;4.15;100.00;102018.84;4926312;29;20027;-74
2022/03/01 15:42:27;;;;;;;25.25;15.80;;;;;;;3.97;100.00;102018.31;4940614;29;20116;-73
2022/03/01 15:45:13;;;;;;;28.95;17.67;;;;;;;3.93;100.00;102019.06;4939912;29;20031;-73
2022/03/01 15:48:01;;;;;;;34.17;18.85;;;;;;;3.49;100.00;102016.81;4940516;29;20465;-72